createdAt,value
2022-08-03T00:01:24.446Z,21.50
2022-08-03T00:03:51.244Z,21.50
2022-08-03T00:06:17.927Z,21.50
2022-08-03T00:08:48.208Z,21.50
2022-08-03T00:11:14.792Z,21.40
2022-08-03T00:13:42.050Z,21.40
2022-08-03T00:16:09.121Z,21.40
2022-08-03T00:18:37.219Z,21.30
2022-08-03T00:21:04.555Z,21.20
2022-08-03T00:23:51.286Z,21.20
2022-08-03T00:26:18.318Z,21.10
2022-08-03T00:28:45.181Z,21.10
2022-08-03T00:31:13.714Z,21.10
2022-08-03T00:33:59.023Z,21.00
2022-08-03T00:36:26.889Z,20.90
2022-08-03T00:38:53.737Z,20.90
2022-08-03T00:41:20.551Z,20.90
2022-08-03T00:43:47.305Z,20.80
2022-08-03T00:46:19.058Z,20.70
2022-08-03T00:48:50.183Z,20.70
2022-08-03T00:51:17.763Z,20.70
2022-08-03T00:53:44.543Z,20.60
2022-08-03T00:56:13.648Z,20.60
2022-08-03T00:58:40.367Z,20.50
2022-08-03T01:01:08.761Z,20.50
2022-08-03T01:03:35.563Z,20.40
2022-08-03T01:06:15.759Z,20.40
2022-08-03T01:08:48.307Z,20.40
2022-08-03T01:11:22.248Z,20.30
2022-08-03T01:14:01.261Z,20.30
2022-08-03T01:16:52.232Z,20.30
2022-08-03T01:19:37.029Z,20.20
2022-08-03T01:22:23.533Z,20.20
2022-08-03T01:24:58.194Z,20.20
2022-08-03T01:27:38.865Z,20.20
2022-08-03T01:30:08.481Z,20.20
2022-08-03T01:32:58.936Z,20.20
2022-08-03T01:35:33.158Z,20.20
2022-08-03T01:38:09.861Z,20.20
2022-08-03T01:40:39.895Z,20.20
2022-08-03T01:43:09.549Z,20.20
2022-08-03T01:45:38.632Z,20.20
2022-08-03T01:48:07.457Z,20.20
2022-08-03T01:50:34.641Z,20.20
2022-08-03T01:53:02.028Z,20.20
2022-08-03T01:55:32.763Z,20.20
2022-08-03T01:58:05.178Z,20.20
2022-08-03T02:00:40.415Z,20.20
2022-08-03T02:03:08.583Z,20.20
2022-08-03T02:05:37.744Z,20.20
2022-08-03T02:08:07.736Z,20.20
2022-08-03T02:10:37.433Z,20.20
2022-08-03T02:13:06.558Z,20.10
2022-08-03T02:15:35.547Z,20.10
2022-08-03T02:18:06.112Z,20.10
2022-08-03T02:20:33.952Z,20.10
2022-08-03T02:23:00.803Z,20.10
2022-08-03T02:25:28.612Z,20.10
2022-08-03T02:27:58.198Z,20.00
2022-08-03T02:30:29.565Z,20.00
2022-08-03T02:32:59.177Z,20.00
2022-08-03T02:35:29.452Z,20.00
2022-08-03T02:38:01.268Z,19.90
2022-08-03T02:40:29.387Z,19.90
2022-08-03T02:42:59.438Z,19.90
2022-08-03T02:45:28.663Z,19.90
2022-08-03T02:48:00.050Z,19.80
2022-08-03T02:50:29.450Z,19.80
2022-08-03T02:52:58.599Z,19.80
2022-08-03T02:55:26.668Z,19.80
2022-08-03T02:57:55.487Z,19.70
2022-08-03T03:00:28.332Z,19.70
2022-08-03T03:02:57.513Z,19.70
2022-08-03T03:05:55.516Z,19.70
2022-08-03T03:08:18.630Z,19.70
2022-08-03T03:10:48.161Z,19.60
2022-08-03T03:13:15.724Z,19.60
2022-08-03T03:15:44.660Z,19.60
2022-08-03T03:18:12.692Z,19.60
2022-08-03T03:20:40.248Z,19.60
2022-08-03T03:23:08.948Z,19.50
2022-08-03T03:25:38.133Z,19.50
2022-08-03T03:28:06.829Z,19.50
2022-08-03T03:30:34.150Z,19.50
2022-08-03T03:33:01.546Z,19.50
2022-08-03T03:35:28.415Z,19.50
2022-08-03T03:37:55.398Z,19.50
2022-08-03T03:40:22.680Z,19.40
2022-08-03T03:42:51.144Z,19.40
2022-08-03T03:45:18.762Z,19.40
2022-08-03T03:47:46.497Z,19.40
2022-08-03T03:50:15.321Z,19.40
2022-08-03T03:52:42.123Z,19.40
2022-08-03T03:55:09.223Z,19.40
2022-08-03T03:57:36.023Z,19.50
2022-08-03T04:00:05.296Z,19.50
2022-08-03T04:02:32.073Z,19.50
2022-08-03T04:04:58.880Z,19.50
2022-08-03T04:07:27.004Z,19.60
2022-08-03T04:09:55.761Z,19.60
2022-08-03T04:12:29.265Z,19.60
2022-08-03T04:14:58.819Z,19.60
2022-08-03T04:17:28.415Z,19.60
2022-08-03T04:19:57.116Z,19.60
2022-08-03T04:22:26.889Z,19.60
2022-08-03T04:24:59.293Z,19.70
2022-08-03T04:27:28.668Z,19.70
2022-08-03T04:29:59.556Z,19.70
2022-08-03T04:32:29.636Z,19.70
2022-08-03T04:34:56.568Z,19.70
2022-08-03T04:37:29.341Z,19.70
2022-08-03T04:39:58.442Z,19.80
2022-08-03T04:42:26.212Z,19.80
2022-08-03T04:44:58.940Z,19.80
2022-08-03T04:47:30.241Z,19.90
2022-08-03T04:49:57.019Z,19.90
2022-08-03T04:52:24.345Z,20.00
2022-08-03T04:54:51.196Z,20.00
2022-08-03T04:57:22.760Z,20.00
2022-08-03T04:59:51.241Z,20.10
2022-08-03T05:02:18.376Z,20.10
2022-08-03T05:04:46.905Z,20.20
2022-08-03T05:07:13.802Z,20.20
2022-08-03T05:09:50.658Z,20.30
2022-08-03T05:12:19.603Z,20.30
2022-08-03T05:14:46.362Z,20.40
2022-08-03T05:17:13.018Z,20.50
2022-08-03T05:19:39.809Z,20.50
2022-08-03T05:22:07.990Z,20.60
2022-08-03T05:24:34.777Z,20.70
2022-08-03T05:27:01.502Z,20.70
2022-08-03T05:29:28.121Z,20.80
2022-08-03T05:31:55.411Z,20.90
2022-08-03T05:34:22.266Z,20.90
2022-08-03T05:36:49.495Z,21.00
2022-08-03T05:39:17.469Z,21.10
2022-08-03T05:41:44.556Z,21.10
2022-08-03T05:44:11.267Z,21.20
2022-08-03T05:46:38.144Z,21.30
2022-08-03T05:49:04.946Z,21.40
2022-08-03T05:51:31.709Z,21.40
2022-08-03T05:53:58.317Z,21.50
2022-08-03T05:56:26.570Z,21.60
2022-08-03T05:58:53.418Z,21.70
2022-08-03T06:01:23.936Z,21.80
2022-08-03T06:03:52.053Z,21.90
2022-08-03T06:06:18.739Z,22.00
2022-08-03T06:08:46.330Z,22.10
2022-08-03T06:11:13.383Z,22.20
2022-08-03T06:13:41.361Z,22.30
2022-08-03T06:16:08.248Z,22.50
2022-08-03T06:18:35.134Z,22.60
2022-08-03T06:21:14.711Z,22.70
2022-08-03T06:23:52.830Z,22.80
2022-08-03T06:26:20.774Z,23.00
2022-08-03T06:28:52.812Z,23.10
2022-08-03T06:31:21.797Z,23.30
2022-08-03T06:34:33.480Z,23.40
2022-08-03T06:36:35.308Z,23.50
2022-08-03T06:39:04.185Z,23.60
2022-08-03T06:41:31.007Z,23.90
2022-08-03T06:44:10.337Z,24.20
2022-08-03T06:46:37.211Z,24.60
2022-08-03T06:49:04.452Z,24.80
2022-08-03T06:52:03.688Z,25.10
2022-08-03T06:54:17.917Z,25.40
2022-08-03T06:56:44.647Z,25.60
2022-08-03T07:00:06.557Z,25.90
2022-08-03T07:01:59.682Z,26.20
2022-08-03T07:04:26.635Z,26.40
2022-08-03T07:06:53.343Z,26.60
2022-08-03T07:09:20.154Z,26.90
2022-08-03T07:11:46.875Z,27.10
2022-08-03T07:14:14.912Z,27.30
2022-08-03T07:16:41.722Z,27.50
2022-08-03T07:19:08.339Z,27.80
2022-08-03T07:21:35.377Z,28.00
2022-08-03T07:24:02.204Z,28.30
2022-08-03T07:26:29.055Z,28.60
2022-08-03T07:28:55.822Z,28.90
2022-08-03T07:31:24.119Z,29.10
2022-08-03T07:33:50.840Z,29.30
2022-08-03T07:36:17.733Z,29.50
2022-08-03T07:38:44.554Z,29.70
2022-08-03T07:41:11.548Z,29.90
2022-08-03T07:43:38.288Z,30.10
2022-08-03T07:46:05.174Z,30.20
2022-08-03T07:48:33.265Z,30.30
2022-08-03T07:50:59.991Z,30.40
2022-08-03T07:53:27.106Z,30.50
2022-08-03T07:55:53.894Z,30.70
2022-08-03T07:58:24.220Z,30.80
2022-08-03T08:00:51.742Z,30.90
2022-08-03T08:03:19.354Z,31.10
2022-08-03T08:05:47.335Z,31.10
2022-08-03T08:08:14.558Z,31.30
2022-08-03T08:10:41.431Z,31.50
2022-08-03T08:13:08.299Z,31.50
2022-08-03T08:15:35.066Z,31.60
2022-08-03T08:18:01.841Z,31.70
2022-08-03T08:20:32.149Z,31.80
2022-08-03T08:23:02.899Z,31.90
2022-08-03T08:25:32.285Z,31.90
2022-08-03T08:28:22.540Z,32.00
2022-08-03T08:30:47.286Z,32.20
2022-08-03T08:33:23.499Z,32.40
2022-08-03T08:35:52.079Z,32.50
2022-08-03T08:38:20.161Z,32.50
2022-08-03T08:40:48.191Z,32.50
2022-08-03T08:43:14.905Z,32.50
2022-08-03T08:45:42.406Z,32.60
2022-08-03T08:48:10.554Z,32.70
2022-08-03T08:50:38.812Z,32.70
2022-08-03T08:53:09.716Z,32.70
2022-08-03T08:55:58.611Z,32.80
2022-08-03T08:58:29.536Z,32.80
2022-08-03T09:00:56.602Z,32.90
2022-08-03T09:03:29.884Z,33.10
2022-08-03T09:06:00.314Z,33.10
2022-08-03T09:08:27.592Z,33.20
2022-08-03T09:10:55.817Z,33.30
2022-08-03T09:13:22.700Z,33.40
2022-08-03T09:16:08.551Z,33.50
2022-08-03T09:18:35.399Z,33.50
2022-08-03T09:21:30.257Z,33.60
2022-08-03T09:24:02.831Z,33.60
2022-08-03T09:26:34.197Z,33.70
2022-08-03T09:29:05.934Z,33.80
2022-08-03T09:31:39.758Z,34.00
2022-08-03T09:34:12.183Z,34.10
2022-08-03T09:36:41.418Z,34.10
2022-08-03T09:39:09.541Z,34.20
2022-08-03T09:41:38.999Z,34.20
2022-08-03T09:44:06.151Z,33.90
2022-08-03T09:46:50.053Z,34.20
2022-08-03T09:49:17.586Z,33.80
2022-08-03T09:52:37.805Z,33.60
2022-08-03T09:54:32.918Z,33.80
2022-08-03T09:57:02.197Z,33.60
2022-08-03T09:59:30.770Z,33.50
2022-08-03T10:01:58.823Z,33.80
2022-08-03T10:04:26.058Z,33.80
2022-08-03T10:07:05.023Z,34.00
2022-08-03T10:09:32.393Z,34.30
2022-08-03T10:12:09.432Z,34.10
2022-08-03T10:14:38.067Z,34.20
2022-08-03T10:17:05.257Z,34.10
2022-08-03T10:19:33.206Z,34.30
2022-08-03T10:22:03.905Z,34.20
2022-08-03T10:24:34.462Z,33.90
2022-08-03T10:27:03.272Z,33.90
2022-08-03T10:29:37.439Z,34.20
2022-08-03T10:32:10.537Z,34.20
2022-08-03T10:34:44.401Z,34.20
2022-08-03T10:37:14.329Z,33.70
2022-08-03T10:39:44.605Z,33.60
2022-08-03T10:42:14.773Z,33.60
2022-08-03T10:44:43.246Z,34.00
2022-08-03T10:47:10.827Z,34.30
2022-08-03T10:49:38.370Z,34.10
2022-08-03T10:52:13.324Z,33.90
2022-08-03T10:54:52.964Z,33.60
2022-08-03T10:57:48.989Z,34.30
2022-08-03T11:00:19.819Z,34.60
2022-08-03T11:03:04.449Z,34.90
2022-08-03T11:05:33.324Z,35.40
2022-08-03T11:08:32.105Z,35.80
2022-08-03T11:11:01.884Z,36.10
2022-08-03T11:13:31.327Z,36.00
2022-08-03T11:16:06.238Z,35.50
2022-08-03T11:18:34.644Z,34.90
2022-08-03T11:21:02.964Z,34.40
2022-08-03T11:24:03.966Z,34.20
2022-08-03T11:26:31.923Z,33.70
2022-08-03T11:29:27.064Z,33.90
2022-08-03T11:31:55.317Z,34.40
2022-08-03T11:34:22.056Z,34.70
2022-08-03T11:37:27.512Z,34.60
2022-08-03T11:39:55.555Z,35.10
2022-08-03T11:42:41.931Z,35.70
2022-08-03T11:45:09.242Z,36.20
2022-08-03T11:47:50.639Z,36.50
2022-08-03T11:50:19.253Z,36.80
2022-08-03T11:52:46.168Z,37.20
2022-08-03T11:55:16.300Z,37.10
2022-08-03T11:59:01.335Z,37.10
2022-08-03T12:00:33.012Z,37.30
2022-08-03T12:03:04.003Z,37.40
2022-08-03T12:05:51.932Z,37.40
2022-08-03T12:08:31.096Z,36.90
2022-08-03T12:11:00.289Z,35.80
2022-08-03T12:14:10.447Z,35.40
2022-08-03T12:16:18.809Z,36.40
2022-08-03T12:18:55.283Z,36.70
2022-08-03T12:21:22.130Z,36.90
2022-08-03T12:23:48.974Z,37.30
2022-08-03T12:26:15.785Z,37.30
2022-08-03T12:28:49.807Z,37.50
2022-08-03T12:31:17.015Z,37.60
2022-08-03T12:33:59.496Z,37.70
2022-08-03T12:36:27.394Z,37.90
2022-08-03T12:38:56.402Z,38.00
2022-08-03T12:41:29.537Z,38.20
2022-08-03T12:43:56.412Z,38.30
2022-08-03T12:46:23.438Z,38.20
2022-08-03T12:49:11.706Z,38.10
2022-08-03T12:51:56.381Z,38.00
2022-08-03T12:54:25.115Z,37.90
2022-08-03T12:56:59.538Z,38.30
2022-08-03T12:59:32.331Z,38.60
2022-08-03T13:02:03.481Z,38.90
2022-08-03T13:04:35.057Z,39.00
2022-08-03T13:07:04.420Z,39.00
2022-08-03T13:09:41.545Z,39.30
2022-08-03T13:12:09.940Z,39.60
2022-08-03T13:14:37.137Z,39.80
2022-08-03T13:17:04.548Z,40.00
2022-08-03T13:19:34.028Z,39.80
2022-08-03T13:22:04.302Z,39.80
2022-08-03T13:24:32.965Z,39.50
2022-08-03T13:27:00.017Z,38.70
2022-08-03T13:29:26.803Z,38.20
2022-08-03T13:31:53.626Z,38.00
2022-08-03T13:34:23.546Z,37.90
2022-08-03T13:37:08.425Z,37.90
2022-08-03T13:39:35.689Z,37.80
2022-08-03T13:42:22.512Z,38.20
2022-08-03T13:44:49.333Z,38.60
2022-08-03T13:47:16.024Z,38.50
2022-08-03T13:49:42.934Z,38.30
2022-08-03T13:52:29.286Z,38.20
2022-08-03T13:54:56.124Z,38.10
2022-08-03T13:58:04.319Z,38.40
2022-08-03T14:00:10.853Z,38.50
2022-08-03T14:02:37.914Z,38.70
2022-08-03T14:05:05.642Z,38.60
2022-08-03T14:07:33.879Z,38.70
2022-08-03T14:10:00.700Z,38.70
2022-08-03T14:12:27.617Z,38.80
2022-08-03T14:14:57.008Z,38.80
2022-08-03T14:17:25.127Z,38.60
2022-08-03T14:19:52.916Z,38.50
2022-08-03T14:22:21.338Z,38.50
2022-08-03T14:24:49.605Z,38.50
2022-08-03T14:27:16.435Z,38.50
2022-08-03T14:29:43.436Z,38.40
2022-08-03T14:32:13.343Z,38.40
2022-08-03T14:34:40.835Z,38.30
2022-08-03T14:37:08.058Z,38.40
2022-08-03T14:42:23.333Z,38.40
2022-08-03T14:44:50.066Z,38.40
2022-08-03T14:47:16.899Z,38.40
2022-08-03T14:50:34.886Z,38.30
2022-08-03T14:52:30.745Z,38.00
2022-08-03T14:54:57.458Z,38.10
2022-08-03T14:57:25.976Z,38.00
2022-08-03T14:59:55.462Z,37.70
2022-08-03T15:02:25.589Z,38.00
2022-08-03T15:04:52.821Z,37.60
2022-08-03T15:07:19.992Z,37.70
2022-08-03T15:09:46.999Z,37.80
2022-08-03T15:12:14.288Z,37.70
2022-08-03T15:14:42.553Z,37.50
2022-08-03T15:17:09.554Z,37.30
2022-08-03T15:20:00.382Z,37.10
2022-08-03T15:22:25.214Z,37.00
2022-08-03T15:25:02.450Z,37.00
2022-08-03T15:27:29.136Z,37.00
2022-08-03T15:30:08.773Z,36.90
2022-08-03T15:32:37.595Z,36.60
2022-08-03T15:35:05.011Z,36.30
2022-08-03T15:37:31.865Z,35.50
2022-08-03T15:40:00.404Z,34.90
2022-08-03T15:42:28.479Z,34.40
2022-08-03T15:44:56.627Z,34.10
2022-08-03T15:47:23.423Z,33.90
2022-08-03T15:49:50.124Z,34.20
2022-08-03T15:52:17.021Z,34.70
2022-08-03T15:54:43.837Z,35.00
2022-08-03T15:57:10.615Z,35.10
2022-08-03T15:59:37.403Z,35.30
2022-08-03T16:02:05.550Z,35.50
2022-08-03T16:04:32.402Z,35.40
2022-08-03T16:06:59.158Z,35.40
2022-08-03T16:09:42.508Z,35.30
2022-08-03T16:12:15.371Z,35.20
2022-08-03T16:14:52.431Z,35.00
2022-08-03T16:17:22.067Z,35.00
2022-08-03T16:19:49.340Z,34.90
2022-08-03T16:22:16.170Z,34.50
2022-08-03T16:24:43.440Z,34.10
2022-08-03T16:27:17.338Z,34.10
2022-08-03T16:29:57.373Z,34.00
2022-08-03T16:32:25.673Z,33.80
2022-08-03T16:34:52.464Z,33.70
2022-08-03T16:40:08.532Z,33.40
2022-08-03T16:42:44.520Z,33.40
2022-08-03T16:45:11.529Z,33.30
2022-08-03T16:47:39.707Z,33.40
2022-08-03T16:50:15.571Z,33.50
2022-08-03T16:52:47.392Z,33.60
2022-08-03T16:55:15.825Z,33.60
2022-08-03T16:57:59.440Z,33.50
2022-08-03T17:00:34.451Z,33.50
2022-08-03T17:03:12.824Z,33.40
2022-08-03T17:05:48.799Z,33.20
2022-08-03T17:08:18.980Z,33.10
2022-08-03T17:10:55.352Z,33.00
2022-08-03T17:13:22.798Z,33.00
2022-08-03T17:16:00.621Z,33.10
2022-08-03T17:18:34.124Z,33.10
2022-08-03T17:21:03.725Z,33.00
2022-08-03T17:23:40.718Z,32.90
2022-08-03T17:26:20.752Z,32.90
2022-08-03T17:28:57.648Z,33.00
2022-08-03T17:31:31.094Z,32.90
2022-08-03T17:34:02.038Z,32.90
2022-08-03T17:39:30.947Z,32.50
2022-08-03T17:42:30.733Z,32.40
2022-08-03T17:44:55.178Z,32.40
2022-08-03T17:47:29.378Z,32.30
2022-08-03T17:50:25.123Z,32.20
2022-08-03T17:53:07.223Z,32.10
2022-08-03T17:55:55.978Z,31.90
2022-08-03T17:58:42.050Z,31.70
2022-08-03T18:01:57.531Z,31.60
2022-08-03T18:06:56.291Z,31.40
2022-08-03T18:12:25.816Z,31.30
2022-08-03T18:15:00.940Z,31.30
2022-08-03T18:17:54.613Z,31.20
2022-08-03T18:20:33.003Z,31.10
2022-08-03T18:23:09.980Z,31.00
2022-08-03T18:25:45.606Z,30.90
2022-08-03T18:28:18.713Z,30.80
2022-08-03T18:30:53.975Z,30.70
2022-08-03T18:34:17.625Z,30.50
2022-08-03T18:36:10.269Z,30.40
2022-08-03T18:38:40.711Z,30.30
2022-08-03T18:41:13.279Z,30.20
2022-08-03T18:43:47.272Z,30.10
2022-08-03T18:46:45.369Z,30.00
2022-08-03T18:49:19.880Z,29.90
2022-08-03T18:51:52.769Z,29.80
2022-08-03T18:54:51.721Z,29.70
2022-08-03T18:57:22.390Z,29.50
2022-08-03T19:00:02.391Z,29.40
2022-08-03T19:02:38.701Z,29.30
2022-08-03T19:05:07.413Z,29.20
2022-08-03T19:10:29.318Z,29.00
2022-08-03T19:13:11.287Z,28.90
2022-08-03T19:15:41.453Z,28.80
2022-08-03T19:18:20.879Z,28.60
2022-08-03T19:20:50.221Z,28.50
2022-08-03T19:23:23.733Z,28.40
2022-08-03T19:25:52.474Z,28.30
2022-08-03T19:28:29.591Z,28.20
2022-08-03T19:30:58.900Z,28.10
2022-08-03T19:33:26.021Z,28.00
2022-08-03T19:35:57.454Z,27.90
2022-08-03T19:38:28.335Z,27.80
2022-08-03T19:41:01.459Z,27.70
2022-08-03T19:43:52.447Z,27.60
2022-08-03T19:49:15.851Z,27.40
2022-08-03T19:52:00.785Z,27.30
2022-08-03T19:54:35.444Z,27.20
2022-08-03T19:57:05.777Z,27.10
2022-08-03T19:59:49.555Z,27.10
2022-08-03T20:02:17.548Z,27.00
2022-08-03T20:04:54.999Z,26.90
2022-08-03T20:07:23.718Z,26.90
2022-08-03T20:09:56.192Z,26.80
2022-08-03T20:12:28.298Z,26.70
2022-08-03T20:14:57.640Z,26.60
2022-08-03T20:17:55.902Z,26.50
2022-08-03T20:20:12.637Z,26.50
2022-08-03T20:22:42.583Z,26.40
2022-08-03T20:25:16.262Z,26.30
2022-08-03T20:28:07.407Z,26.20
2022-08-03T20:30:42.553Z,26.20
2022-08-03T20:33:10.335Z,26.10
2022-08-03T20:35:41.901Z,26.00
2022-08-03T20:38:12.666Z,25.90
2022-08-03T20:40:39.705Z,25.90
2022-08-03T20:43:09.256Z,25.80
2022-08-03T20:46:01.243Z,25.70
2022-08-03T20:48:26.347Z,25.70
2022-08-03T20:50:53.333Z,25.70
2022-08-03T20:53:57.022Z,25.60
2022-08-03T20:56:09.247Z,25.60
2022-08-03T20:58:38.208Z,25.60
2022-08-03T21:01:08.323Z,25.50
2022-08-03T21:03:40.750Z,25.50
2022-08-03T21:06:27.633Z,25.50
2022-08-03T21:08:59.906Z,25.40
2022-08-03T21:11:41.513Z,25.40
2022-08-03T21:12:56.491Z,31.50
2022-08-03T21:12:57.102Z,31.40
2022-08-03T21:13:10.549Z,29.10
2022-08-03T21:13:11.155Z,27.50
2022-08-03T21:14:15.134Z,25.30
2022-08-03T21:16:45.643Z,25.30
2022-08-03T21:19:13.746Z,25.30
2022-08-03T21:21:41.323Z,25.20
2022-08-03T21:24:12.606Z,25.20
2022-08-03T21:26:40.088Z,25.10
2022-08-03T21:29:11.477Z,25.10
2022-08-03T21:31:40.138Z,25.00
2022-08-03T21:34:07.070Z,25.00
2022-08-03T21:36:35.513Z,24.90
2022-08-03T21:39:05.449Z,24.90
2022-08-03T21:41:32.831Z,24.80
2022-08-03T21:44:00.391Z,24.80
2022-08-03T21:46:30.491Z,24.70
2022-08-03T21:50:02.613Z,24.70
2022-08-03T21:51:49.787Z,24.60
2022-08-03T21:54:17.450Z,24.60
2022-08-03T21:56:50.853Z,24.50
2022-08-03T21:59:19.417Z,24.50
2022-08-03T22:01:48.829Z,24.40
2022-08-03T22:04:50.851Z,24.40
2022-08-03T22:07:07.217Z,24.30
2022-08-03T22:09:34.527Z,24.30
2022-08-03T22:12:01.319Z,24.20
2022-08-03T22:14:28.306Z,24.20
2022-08-03T22:16:55.522Z,24.20
2022-08-03T22:19:25.344Z,24.10
2022-08-03T22:21:52.196Z,24.10
2022-08-03T22:24:24.042Z,24.10
2022-08-03T22:26:51.253Z,24.00
2022-08-03T22:29:17.916Z,24.00
2022-08-03T22:31:57.639Z,23.90
2022-08-03T22:34:28.388Z,23.90
2022-08-03T22:37:01.605Z,23.80
2022-08-03T22:39:29.221Z,23.80
2022-08-03T22:41:57.578Z,23.70
2022-08-03T22:44:24.695Z,23.70
2022-08-03T22:46:52.080Z,23.60
2022-08-03T22:49:19.521Z,23.60
2022-08-03T22:51:48.470Z,23.50
2022-08-03T22:54:16.583Z,23.50
2022-08-03T22:56:46.449Z,23.40
2022-08-03T22:59:40.907Z,23.40
2022-08-03T23:02:01.841Z,23.40
2022-08-03T23:04:44.623Z,23.30
2022-08-03T23:07:16.595Z,23.30
2022-08-03T23:09:45.599Z,23.20
2022-08-03T23:12:16.111Z,23.20
2022-08-03T23:14:48.076Z,23.10
2022-08-03T23:17:15.833Z,23.10
2022-08-03T23:19:44.855Z,23.10
2022-08-03T23:22:17.106Z,23.00
2022-08-03T23:24:58.311Z,22.90
2022-08-03T23:27:26.702Z,22.90
2022-08-03T23:29:54.094Z,22.90
2022-08-03T23:32:20.946Z,22.80
2022-08-03T23:34:50.156Z,22.80
2022-08-03T23:37:19.308Z,22.80
2022-08-03T23:39:48.226Z,22.70
2022-08-03T23:42:17.266Z,22.70
2022-08-03T23:44:44.920Z,22.60
2022-08-03T23:47:11.784Z,22.60
2022-08-03T23:49:38.841Z,22.60
2022-08-03T23:52:09.773Z,22.50
2022-08-03T23:54:45.647Z,22.50
2022-08-03T23:57:25.504Z,22.50
